aviador You're here:

GMFO Decoded Metar

OUJDA in MOROCCO
Report Time2017-08-18 23:00:00
UTC Time2017-08-18 23:44:41
Flight Rules vfr VFR
WindVRB at 02 kt
Visibility9999 m
Phenomena:N/A
Clouds:N/A
Expected CloudBase > 2,800 ft AGL from Temp-Dew spread
CeilingNone
Temp24°C (ISA +12)
Dew Point17°C (65% RH)
QNH1017 hPa
Density Alt3,068 ft
Elevation1,542 ft
Report Wrong Elevation
Raw Report
GMFO 182300Z VRB02KT CAVOK 24/17 Q1017 NOSIG=

Extra information for GMFO:More info

Metar Taf Metar & Taf Last 4 Metars F.Rules Stats Wind Profile Meteogram Temp Stats Airport Information Weather charts Add Link Nearby VenuesMetar ALERT Operation Metar Decoded Social comments